sensor_id;sensor_type;location;lat;lon;timestamp;pressure;altitude;pressure_sealevel;temperature;humidity
40650;BME280;26342;42.826;23.992;2023-01-27T00:00:12;94622.66;;;-0.73;100.00
40650;BME280;26342;42.826;23.992;2023-01-27T00:02:38;94622.44;;;-0.71;100.00
40650;BME280;26342;42.826;23.992;2023-01-27T00:05:04;94616.81;;;-0.68;100.00
40650;BME280;26342;42.826;23.992;2023-01-27T00:07:30;94619.66;;;-0.76;100.00
40650;BME280;26342;42.826;23.992;2023-01-27T00:09:55;94620.44;;;-0.76;100.00
40650;BME280;26342;42.826;23.992;2023-01-27T00:12:21;94625.91;;;-0.77;100.00
40650;BME280;26342;42.826;23.992;2023-01-27T00:15:06;94627.09;;;-0.80;100.00
40650;BME280;26342;42.826;23.992;2023-01-27T00:17:32;94636.97;;;-0.75;100.00
40650;BME280;26342;42.826;23.992;2023-01-27T00:19:58;94650.50;;;-0.78;100.00
40650;BME280;26342;42.826;23.992;2023-01-27T00:22:23;94635.16;;;-0.75;100.00
40650;BME280;26342;42.826;23.992;2023-01-27T00:25:07;94628.09;;;-0.68;100.00
40650;BME280;26342;42.826;23.992;2023-01-27T00:27:32;94629.91;;;-0.62;100.00
40650;BME280;26342;42.826;23.992;2023-01-27T00:29:58;94632.31;;;-0.60;100.00
40650;BME280;26342;42.826;23.992;2023-01-27T00:32:23;94612.53;;;-0.56;100.00
40650;BME280;26342;42.826;23.992;2023-01-27T00:35:07;94610.53;;;-0.54;100.00
40650;BME280;26342;42.826;23.992;2023-01-27T00:37:32;94603.69;;;-0.62;100.00
40650;BME280;26342;42.826;23.992;2023-01-27T00:39:58;94591.63;;;-0.69;100.00
40650;BME280;26342;42.826;23.992;2023-01-27T00:42:23;94602.28;;;-0.64;100.00
40650;BME280;26342;42.826;23.992;2023-01-27T00:44:48;94600.06;;;-0.67;100.00
40650;BME280;26342;42.826;23.992;2023-01-27T00:47:32;94604.94;;;-0.71;100.00
40650;BME280;26342;42.826;23.992;2023-01-27T00:49:58;94613.38;;;-0.69;100.00
40650;BME280;26342;42.826;23.992;2023-01-27T00:52:23;94612.56;;;-0.63;100.00
40650;BME280;26342;42.826;23.992;2023-01-27T00:54:48;94615.59;;;-0.66;100.00
40650;BME280;26342;42.826;23.992;2023-01-27T00:57:13;94610.53;;;-0.61;100.00
40650;BME280;26342;42.826;23.992;2023-01-27T00:59:39;94613.16;;;-0.61;100.00
40650;BME280;26342;42.826;23.992;2023-01-27T01:02:04;94616.19;;;-0.64;100.00
40650;BME280;26342;42.826;23.992;2023-01-27T01:04:29;94616.22;;;-0.70;100.00
40650;BME280;26342;42.826;23.992;2023-01-27T01:06:54;94623.44;;;-0.72;100.00
40650;BME280;26342;42.826;23.992;2023-01-27T01:09:20;94621.25;;;-0.69;100.00
40650;BME280;26342;42.826;23.992;2023-01-27T01:11:45;94618.19;;;-0.66;100.00
40650;BME280;26342;42.826;23.992;2023-01-27T01:14:10;94614.38;;;-0.63;100.00
40650;BME280;26342;42.826;23.992;2023-01-27T01:16:35;94620.59;;;-0.58;100.00
40650;BME280;26342;42.826;23.992;2023-01-27T01:19:01;94619.00;;;-0.59;100.00
40650;BME280;26342;42.826;23.992;2023-01-27T01:21:26;94618.19;;;-0.66;100.00
40650;BME280;26342;42.826;23.992;2023-01-27T01:23:51;94610.75;;;-0.62;100.00
40650;BME280;26342;42.826;23.992;2023-01-27T01:26:16;94604.88;;;-0.64;100.00
40650;BME280;26342;42.826;23.992;2023-01-27T01:28:42;94601.47;;;-0.65;100.00
40650;BME280;26342;42.826;23.992;2023-01-27T01:31:18;94599.66;;;-0.64;100.00
40650;BME280;26342;42.826;23.992;2023-01-27T01:33:44;94602.47;;;-0.66;100.00
40650;BME280;26342;42.826;23.992;2023-01-27T01:36:13;94586.38;;;-0.69;100.00
40650;BME280;26342;42.826;23.992;2023-01-27T01:38:39;94579.94;;;-0.73;100.00
40650;BME280;26342;42.826;23.992;2023-01-27T01:41:05;94575.91;;;-0.69;100.00
40650;BME280;26342;42.826;23.992;2023-01-27T01:43:31;94586.78;;;-0.72;100.00
40650;BME280;26342;42.826;23.992;2023-01-27T01:45:56;94584.38;;;-0.80;100.00
40650;BME280;26342;42.826;23.992;2023-01-27T01:50:57;94593.84;;;-0.79;100.00
40650;BME280;26342;42.826;23.992;2023-01-27T01:53:25;94576.13;;;-0.77;100.00
40650;BME280;26342;42.826;23.992;2023-01-27T01:55:54;94559.41;;;-0.76;100.00
40650;BME280;26342;42.826;23.992;2023-01-27T01:58:20;94569.06;;;-0.70;100.00
40650;BME280;26342;42.826;23.992;2023-01-27T02:00:45;94570.03;;;-0.71;100.00
40650;BME280;26342;42.826;23.992;2023-01-27T02:03:11;94551.31;;;-0.75;100.00
40650;BME280;26342;42.826;23.992;2023-01-27T02:05:38;94543.03;;;-0.72;100.00
40650;BME280;26342;42.826;23.992;2023-01-27T02:08:12;94548.25;;;-0.65;100.00
40650;BME280;26342;42.826;23.992;2023-01-27T02:10:39;94551.09;;;-0.67;100.00
40650;BME280;26342;42.826;23.992;2023-01-27T02:13:04;94543.03;;;-0.72;100.00
40650;BME280;26342;42.826;23.992;2023-01-27T02:15:30;94534.56;;;-0.67;100.00
40650;BME280;26342;42.826;23.992;2023-01-27T02:17:56;94535.00;;;-0.70;100.00
40650;BME280;26342;42.826;23.992;2023-01-27T02:28:17;94509.97;;;-0.66;100.00
40650;BME280;26342;42.826;23.992;2023-01-27T02:30:42;94524.91;;;-0.73;100.00
40650;BME280;26342;42.826;23.992;2023-01-27T02:33:14;94526.75;;;-0.74;100.00
40650;BME280;26342;42.826;23.992;2023-01-27T02:38:10;94509.38;;;-0.62;100.00
40650;BME280;26342;42.826;23.992;2023-01-27T02:40:37;94510.38;;;-0.63;100.00
40650;BME280;26342;42.826;23.992;2023-01-27T02:43:03;94519.66;;;-0.67;100.00
40650;BME280;26342;42.826;23.992;2023-01-27T02:45:29;94522.28;;;-0.73;100.00
40650;BME280;26342;42.826;23.992;2023-01-27T02:47:54;94516.44;;;-0.69;100.00
40650;BME280;26342;42.826;23.992;2023-01-27T02:50:19;94530.00;;;-0.78;100.00
40650;BME280;26342;42.826;23.992;2023-01-27T02:52:44;94540.28;;;-0.83;100.00
40650;BME280;26342;42.826;23.992;2023-01-27T02:55:10;94547.94;;;-0.82;100.00
40650;BME280;26342;42.826;23.992;2023-01-27T02:57:35;94546.31;;;-0.83;100.00
40650;BME280;26342;42.826;23.992;2023-01-27T03:00:00;94555.19;;;-0.84;100.00
40650;BME280;26342;42.826;23.992;2023-01-27T03:02:26;94551.34;;;-0.81;100.00
40650;BME280;26342;42.826;23.992;2023-01-27T03:04:57;94549.28;;;-0.73;100.00
40650;BME280;26342;42.826;23.992;2023-01-27T03:07:22;94532.16;;;-0.69;100.00
40650;BME280;26342;42.826;23.992;2023-01-27T03:09:48;94526.50;;;-0.66;100.00
40650;BME280;26342;42.826;23.992;2023-01-27T03:12:13;94516.84;;;-0.72;100.00
40650;BME280;26342;42.826;23.992;2023-01-27T03:14:45;94512.84;;;-0.74;100.00
40650;BME280;26342;42.826;23.992;2023-01-27T03:17:29;94493.47;;;-0.73;100.00
40650;BME280;26342;42.826;23.992;2023-01-27T03:20:13;94490.88;;;-0.80;100.00
40650;BME280;26342;42.826;23.992;2023-01-27T03:22:38;94496.34;;;-0.81;100.00
40650;BME280;26342;42.826;23.992;2023-01-27T03:25:04;94503.41;;;-0.82;100.00
40650;BME280;26342;42.826;23.992;2023-01-27T03:27:29;94499.53;;;-0.79;100.00
40650;BME280;26342;42.826;23.992;2023-01-27T03:29:54;94491.06;;;-0.75;100.00
40650;BME280;26342;42.826;23.992;2023-01-27T03:32:20;94497.69;;;-0.72;100.00
40650;BME280;26342;42.826;23.992;2023-01-27T03:34:46;94485.38;;;-0.65;100.00
40650;BME280;26342;42.826;23.992;2023-01-27T03:37:11;94477.31;;;-0.64;100.00
40650;BME280;26342;42.826;23.992;2023-01-27T03:39:55;94482.38;;;-0.62;100.00
40650;BME280;26342;42.826;23.992;2023-01-27T03:42:38;94482.97;;;-0.67;100.00
40650;BME280;26342;42.826;23.992;2023-01-27T03:45:22;94483.78;;;-0.66;100.00
40650;BME280;26342;42.826;23.992;2023-01-27T03:48:06;94473.09;;;-0.65;100.00
40650;BME280;26342;42.826;23.992;2023-01-27T03:50:31;94491.25;;;-0.63;100.00
40650;BME280;26342;42.826;23.992;2023-01-27T03:53:10;94487.00;;;-0.64;100.00
40650;BME280;26342;42.826;23.992;2023-01-27T03:55:36;94489.22;;;-0.61;100.00
40650;BME280;26342;42.826;23.992;2023-01-27T03:58:01;94491.25;;;-0.63;100.00
40650;BME280;26342;42.826;23.992;2023-01-27T04:00:42;94501.91;;;-0.65;100.00
40650;BME280;26342;42.826;23.992;2023-01-27T04:03:07;94521.66;;;-0.62;100.00
40650;BME280;26342;42.826;23.992;2023-01-27T04:05:51;94523.47;;;-0.63;100.00
40650;BME280;26342;42.826;23.992;2023-01-27T04:08:35;94530.31;;;-0.62;100.00
40650;BME280;26342;42.826;23.992;2023-01-27T04:11:01;94530.50;;;-0.57;100.00
40650;BME280;26342;42.826;23.992;2023-01-27T04:13:44;94508.69;;;-0.50;100.00
40650;BME280;26342;42.826;23.992;2023-01-27T04:16:10;94514.53;;;-0.48;100.00
40650;BME280;26342;42.826;23.992;2023-01-27T04:18:35;94536.38;;;-0.61;100.00
40650;BME280;26342;42.826;23.992;2023-01-27T04:21:02;94544.84;;;-0.66;100.00
40650;BME280;26342;42.826;23.992;2023-01-27T04:23:27;94539.59;;;-0.59;100.00
40650;BME280;26342;42.826;23.992;2023-01-27T04:25:52;94540.16;;;-0.50;100.00
40650;BME280;26342;42.826;23.992;2023-01-27T04:28:18;94537.31;;;-0.49;100.00
40650;BME280;26342;42.826;23.992;2023-01-27T04:30:43;94550.41;;;-0.49;100.00
40650;BME280;26342;42.826;23.992;2023-01-27T04:33:08;94544.38;;;-0.49;100.00
40650;BME280;26342;42.826;23.992;2023-01-27T04:35:34;94549.41;;;-0.48;100.00
40650;BME280;26342;42.826;23.992;2023-01-27T04:37:59;94546.19;;;-0.50;100.00
40650;BME280;26342;42.826;23.992;2023-01-27T04:40:24;94558.50;;;-0.50;100.00
40650;BME280;26342;42.826;23.992;2023-01-27T04:42:51;94545.78;;;-0.47;100.00
40650;BME280;26342;42.826;23.992;2023-01-27T04:45:16;94553.00;;;-0.42;100.00
40650;BME280;26342;42.826;23.992;2023-01-27T04:47:42;94551.59;;;-0.38;100.00
40650;BME280;26342;42.826;23.992;2023-01-27T04:50:07;94548.75;;;-0.37;100.00
40650;BME280;26342;42.826;23.992;2023-01-27T04:52:33;94555.03;;;-0.38;100.00
40650;BME280;26342;42.826;23.992;2023-01-27T04:54:58;94546.34;;;-0.38;100.00
40650;BME280;26342;42.826;23.992;2023-01-27T04:57:23;94538.06;;;-0.35;100.00
40650;BME280;26342;42.826;23.992;2023-01-27T04:59:49;94540.25;;;-0.32;100.00
40650;BME280;26342;42.826;23.992;2023-01-27T05:02:14;94529.97;;;-0.34;100.00
40650;BME280;26342;42.826;23.992;2023-01-27T05:04:40;94528.81;;;-0.38;100.00
40650;BME280;26342;42.826;23.992;2023-01-27T05:07:05;94523.16;;;-0.41;100.00
40650;BME280;26342;42.826;23.992;2023-01-27T05:09:30;94522.81;;;-0.51;100.00
40650;BME280;26342;42.826;23.992;2023-01-27T05:11:55;94512.72;;;-0.48;100.00
40650;BME280;26342;42.826;23.992;2023-01-27T05:14:21;94523.81;;;-0.46;100.00
40650;BME280;26342;42.826;23.992;2023-01-27T05:16:47;94525.44;;;-0.51;100.00
40650;BME280;26342;42.826;23.992;2023-01-27T05:19:12;94518.38;;;-0.51;100.00
40650;BME280;26342;42.826;23.992;2023-01-27T05:21:38;94514.81;;;-0.63;100.00
40650;BME280;26342;42.826;23.992;2023-01-27T05:24:03;94524.31;;;-0.69;100.00
40650;BME280;26342;42.826;23.992;2023-01-27T05:26:28;94520.09;;;-0.76;100.00
40650;BME280;26342;42.826;23.992;2023-01-27T05:28:55;94504.63;;;-0.85;100.00
40650;BME280;26342;42.826;23.992;2023-01-27T05:31:22;94506.25;;;-0.90;100.00
40650;BME280;26342;42.826;23.992;2023-01-27T05:33:49;94508.25;;;-0.86;100.00
40650;BME280;26342;42.826;23.992;2023-01-27T05:36:15;94519.78;;;-1.00;100.00
40650;BME280;26342;42.826;23.992;2023-01-27T05:38:41;94514.75;;;-0.95;100.00
40650;BME280;26342;42.826;23.992;2023-01-27T05:41:07;94518.13;;;-0.88;100.00
40650;BME280;26342;42.826;23.992;2023-01-27T05:43:34;94512.84;;;-0.81;100.00
40650;BME280;26342;42.826;23.992;2023-01-27T05:46:03;94509.84;;;-0.78;100.00
40650;BME280;26342;42.826;23.992;2023-01-27T05:48:29;94507.81;;;-0.76;100.00
40650;BME280;26342;42.826;23.992;2023-01-27T05:50:55;94510.97;;;-0.61;100.00
40650;BME280;26342;42.826;23.992;2023-01-27T05:53:21;94515.41;;;-0.61;100.00
40650;BME280;26342;42.826;23.992;2023-01-27T05:55:48;94502.72;;;-0.64;100.00
40650;BME280;26342;42.826;23.992;2023-01-27T05:58:13;94504.13;;;-0.62;100.00
40650;BME280;26342;42.826;23.992;2023-01-27T06:00:38;94495.25;;;-0.61;100.00
40650;BME280;26342;42.826;23.992;2023-01-27T06:03:03;94496.84;;;-0.60;100.00
40650;BME280;26342;42.826;23.992;2023-01-27T06:05:29;94496.06;;;-0.60;100.00
40650;BME280;26342;42.826;23.992;2023-01-27T06:07:54;94498.88;;;-0.62;100.00
40650;BME280;26342;42.826;23.992;2023-01-27T06:10:19;94499.47;;;-0.60;100.00
40650;BME280;26342;42.826;23.992;2023-01-27T06:12:44;94507.91;;;-0.51;100.00
40650;BME280;26342;42.826;23.992;2023-01-27T06:15:10;94511.72;;;-0.47;100.00
40650;BME280;26342;42.826;23.992;2023-01-27T06:17:35;94523.78;;;-0.39;100.00
40650;BME280;26342;42.826;23.992;2023-01-27T06:20:00;94523.34;;;-0.36;100.00
40650;BME280;26342;42.826;23.992;2023-01-27T06:22:25;94522.72;;;-0.32;100.00
40650;BME280;26342;42.826;23.992;2023-01-27T06:24:51;94527.75;;;-0.30;100.00
40650;BME280;26342;42.826;23.992;2023-01-27T06:27:16;94532.00;;;-0.29;100.00
40650;BME280;26342;42.826;23.992;2023-01-27T06:29:41;94529.19;;;-0.34;100.00
40650;BME280;26342;42.826;23.992;2023-01-27T06:32:06;94526.34;;;-0.33;100.00
40650;BME280;26342;42.826;23.992;2023-01-27T06:34:32;94538.25;;;-0.30;100.00
40650;BME280;26342;42.826;23.992;2023-01-27T06:36:57;94548.13;;;-0.32;100.00
40650;BME280;26342;42.826;23.992;2023-01-27T06:39:22;94537.03;;;-0.34;100.00
40650;BME280;26342;42.826;23.992;2023-01-27T06:41:48;94531.41;;;-0.31;100.00
40650;BME280;26342;42.826;23.992;2023-01-27T06:44:13;94542.25;;;-0.28;100.00
40650;BME280;26342;42.826;23.992;2023-01-27T06:46:38;94542.25;;;-0.28;100.00
40650;BME280;26342;42.826;23.992;2023-01-27T06:49:04;94554.19;;;-0.32;100.00
40650;BME280;26342;42.826;23.992;2023-01-27T06:51:29;94562.84;;;-0.31;100.00
40650;BME280;26342;42.826;23.992;2023-01-27T06:53:54;94557.41;;;-0.30;100.00
40650;BME280;26342;42.826;23.992;2023-01-27T06:56:19;94559.38;;;-0.25;100.00
40650;BME280;26342;42.826;23.992;2023-01-27T06:58:44;94572.06;;;-0.15;100.00
40650;BME280;26342;42.826;23.992;2023-01-27T07:01:10;94585.16;;;-0.15;100.00
40650;BME280;26342;42.826;23.992;2023-01-27T07:03:35;94586.94;;;-0.09;100.00
40650;BME280;26342;42.826;23.992;2023-01-27T07:06:01;94589.78;;;-0.11;100.00
40650;BME280;26342;42.826;23.992;2023-01-27T07:08:26;94589.78;;;-0.11;100.00
40650;BME280;26342;42.826;23.992;2023-01-27T07:10:51;94578.03;;;-0.08;100.00
40650;BME280;26342;42.826;23.992;2023-01-27T07:13:17;94582.06;;;0.01;100.00
40650;BME280;26342;42.826;23.992;2023-01-27T07:15:42;94581.84;;;0.03;100.00
40650;BME280;26342;42.826;23.992;2023-01-27T07:18:09;94570.69;;;0.07;100.00
40650;BME280;26342;42.826;23.992;2023-01-27T07:20:34;94577.94;;;0.12;100.00
40650;BME280;26342;42.826;23.992;2023-01-27T07:23:00;94571.84;;;0.18;100.00
40650;BME280;26342;42.826;23.992;2023-01-27T07:25:27;94573.66;;;0.24;100.00
40650;BME280;26342;42.826;23.992;2023-01-27T07:27:52;94563.72;;;0.26;100.00
40650;BME280;26342;42.826;23.992;2023-01-27T07:30:18;94566.56;;;0.24;100.00
40650;BME280;26342;42.826;23.992;2023-01-27T07:32:43;94559.75;;;0.17;100.00
40650;BME280;26342;42.826;23.992;2023-01-27T07:35:08;94563.63;;;0.08;100.00
40650;BME280;26342;42.826;23.992;2023-01-27T07:37:34;94568.28;;;0.06;100.00
40650;BME280;26342;42.826;23.992;2023-01-27T07:39:59;94563.59;;;0.14;100.00
40650;BME280;26342;42.826;23.992;2023-01-27T07:42:24;94564.09;;;-0.02;100.00
40650;BME280;26342;42.826;23.992;2023-01-27T07:44:49;94563.75;;;-0.12;100.00
40650;BME280;26342;42.826;23.992;2023-01-27T07:47:15;94559.94;;;-0.16;100.00
40650;BME280;26342;42.826;23.992;2023-01-27T07:49:40;94559.56;;;-0.20;100.00
40650;BME280;26342;42.826;23.992;2023-01-27T07:52:05;94557.53;;;-0.18;100.00
40650;BME280;26342;42.826;23.992;2023-01-27T07:54:30;94564.34;;;-0.10;100.00
40650;BME280;26342;42.826;23.992;2023-01-27T07:56:58;94562.09;;;0.00;100.00
40650;BME280;26342;42.826;23.992;2023-01-27T07:59:23;94559.63;;;0.05;100.00
40650;BME280;26342;42.826;23.992;2023-01-27T08:01:48;94550.06;;;0.17;100.00
40650;BME280;26342;42.826;23.992;2023-01-27T08:04:14;94567.13;;;0.33;100.00
40650;BME280;26342;42.826;23.992;2023-01-27T08:06:39;94563.03;;;0.37;100.00
40650;BME280;26342;42.826;23.992;2023-01-27T08:09:04;94556.63;;;0.33;100.00
40650;BME280;26342;42.826;23.992;2023-01-27T08:11:30;94564.84;;;0.37;100.00
40650;BME280;26342;42.826;23.992;2023-01-27T08:13:55;94566.91;;;0.35;100.00
40650;BME280;26342;42.826;23.992;2023-01-27T08:16:21;94562.44;;;0.35;100.00
40650;BME280;26342;42.826;23.992;2023-01-27T08:18:46;94560.81;;;0.41;100.00
40650;BME280;26342;42.826;23.992;2023-01-27T08:21:11;94557.31;;;0.47;100.00
40650;BME280;26342;42.826;23.992;2023-01-27T08:23:37;94556.84;;;0.57;100.00
40650;BME280;26342;42.826;23.992;2023-01-27T08:26:03;94551.72;;;0.62;100.00
40650;BME280;26342;42.826;23.992;2023-01-27T08:28:29;94556.53;;;0.71;100.00
40650;BME280;26342;42.826;23.992;2023-01-27T08:31:01;94558.94;;;0.73;100.00
40650;BME280;26342;42.826;23.992;2023-01-27T08:33:27;94553.41;;;0.81;100.00
40650;BME280;26342;42.826;23.992;2023-01-27T08:35:52;94553.53;;;0.86;100.00
40650;BME280;26342;42.826;23.992;2023-01-27T08:38:18;94553.41;;;0.99;100.00
40650;BME280;26342;42.826;23.992;2023-01-27T08:40:44;94549.72;;;1.07;100.00
40650;BME280;26342;42.826;23.992;2023-01-27T08:43:10;94547.59;;;1.16;100.00
40650;BME280;26342;42.826;23.992;2023-01-27T08:45:35;94552.56;;;1.24;100.00
40650;BME280;26342;42.826;23.992;2023-01-27T08:48:01;94562.50;;;1.22;100.00
40650;BME280;26342;42.826;23.992;2023-01-27T08:50:27;94555.63;;;1.21;100.00
40650;BME280;26342;42.826;23.992;2023-01-27T08:52:54;94556.44;;;1.21;100.00
40650;BME280;26342;42.826;23.992;2023-01-27T08:55:23;94560.16;;;1.32;100.00
40650;BME280;26342;42.826;23.992;2023-01-27T08:57:48;94560.09;;;1.38;100.00
40650;BME280;26342;42.826;23.992;2023-01-27T09:00:13;94553.38;;;1.43;100.00
40650;BME280;26342;42.826;23.992;2023-01-27T09:02:39;94546.28;;;1.43;100.00
40650;BME280;26342;42.826;23.992;2023-01-27T09:05:04;94548.41;;;1.53;100.00
40650;BME280;26342;42.826;23.992;2023-01-27T09:07:30;94551.53;;;1.61;100.00
40650;BME280;26342;42.826;23.992;2023-01-27T09:09:57;94550.66;;;1.67;100.00
40650;BME280;26342;42.826;23.992;2023-01-27T09:12:22;94549.31;;;1.77;100.00
40650;BME280;26342;42.826;23.992;2023-01-27T09:14:47;94537.31;;;1.81;100.00
40650;BME280;26342;42.826;23.992;2023-01-27T09:17:12;94538.53;;;1.96;100.00
40650;BME280;26342;42.826;23.992;2023-01-27T09:19:41;94529.06;;;2.07;100.00
40650;BME280;26342;42.826;23.992;2023-01-27T09:22:07;94527.97;;;2.15;100.00
40650;BME280;26342;42.826;23.992;2023-01-27T09:24:32;94529.47;;;2.22;100.00
40650;BME280;26342;42.826;23.992;2023-01-27T09:26:57;94517.53;;;2.20;100.00
40650;BME280;26342;42.826;23.992;2023-01-27T09:29:23;94520.50;;;2.12;100.00
40650;BME280;26342;42.826;23.992;2023-01-27T09:31:48;94520.72;;;2.10;100.00
40650;BME280;26342;42.826;23.992;2023-01-27T09:34:13;94514.19;;;2.13;100.00
40650;BME280;26342;42.826;23.992;2023-01-27T09:36:40;94511.94;;;2.16;100.00
40650;BME280;26342;42.826;23.992;2023-01-27T09:39:07;94513.88;;;2.21;100.00
40650;BME280;26342;42.826;23.992;2023-01-27T09:59:25;94507.38;;;2.35;100.00
40650;BME280;26342;42.826;23.992;2023-01-27T10:17:33;94486.69;;;2.86;100.00
40650;BME280;26342;42.826;23.992;2023-01-27T10:27:25;94487.03;;;2.89;100.00
40650;BME280;26342;42.826;23.992;2023-01-27T10:29:59;94488.88;;;2.89;100.00
40650;BME280;26342;42.826;23.992;2023-01-27T10:32:38;94469.97;;;2.68;100.00
40650;BME280;26342;42.826;23.992;2023-01-27T10:37:46;94484.63;;;2.76;100.00
40650;BME280;26342;42.826;23.992;2023-01-27T10:41:18;94479.16;;;2.77;100.00
40650;BME280;26342;42.826;23.992;2023-01-27T10:45:44;94483.59;;;2.65;100.00
40650;BME280;26342;42.826;23.992;2023-01-27T10:50:47;94470.09;;;2.50;100.00
40650;BME280;26342;42.826;23.992;2023-01-27T10:55:43;94459.66;;;2.43;100.00
40650;BME280;26342;42.826;23.992;2023-01-27T10:58:35;94463.88;;;2.33;100.00
40650;BME280;26342;42.826;23.992;2023-01-27T11:00:56;94465.97;;;2.31;100.00
40650;BME280;26342;42.826;23.992;2023-01-27T11:03:56;94459.44;;;2.33;100.00
40650;BME280;26342;42.826;23.992;2023-01-27T11:06:14;94458.97;;;2.36;100.00
40650;BME280;26342;42.826;23.992;2023-01-27T11:08:44;94451.63;;;2.27;100.00
40650;BME280;26342;42.826;23.992;2023-01-27T11:11:10;94454.03;;;2.28;100.00
40650;BME280;26342;42.826;23.992;2023-01-27T11:13:59;94455.28;;;2.14;100.00
40650;BME280;26342;42.826;23.992;2023-01-27T11:16:29;94454.25;;;2.15;100.00
40650;BME280;26342;42.826;23.992;2023-01-27T11:18:57;94452.44;;;2.15;100.00
40650;BME280;26342;42.826;23.992;2023-01-27T11:21:25;94458.50;;;2.16;100.00
40650;BME280;26342;42.826;23.992;2023-01-27T11:23:53;94452.06;;;2.12;100.00
40650;BME280;26342;42.826;23.992;2023-01-27T11:26:39;94445.66;;;2.08;100.00
40650;BME280;26342;42.826;23.992;2023-01-27T11:31:39;94456.63;;;2.05;100.00
40650;BME280;26342;42.826;23.992;2023-01-27T11:36:52;94448.84;;;1.98;100.00
40650;BME280;26342;42.826;23.992;2023-01-27T11:39:17;94456.53;;;2.00;100.00
40650;BME280;26342;42.826;23.992;2023-01-27T11:41:49;94455.59;;;1.94;100.00
40650;BME280;26342;42.826;23.992;2023-01-27T11:44:17;94458.78;;;1.96;100.00
40650;BME280;26342;42.826;23.992;2023-01-27T11:46:43;94451.59;;;1.91;100.00
40650;BME280;26342;42.826;23.992;2023-01-27T11:49:09;94446.28;;;1.80;100.00
40650;BME280;26342;42.826;23.992;2023-01-27T11:51:36;94450.75;;;1.79;100.00
40650;BME280;26342;42.826;23.992;2023-01-27T11:54:07;94448.47;;;1.83;100.00
40650;BME280;26342;42.826;23.992;2023-01-27T11:56:35;94450.88;;;1.84;100.00
40650;BME280;26342;42.826;23.992;2023-01-27T11:59:05;94443.22;;;1.83;100.00
40650;BME280;26342;42.826;23.992;2023-01-27T12:02:16;94442.84;;;1.79;100.00
40650;BME280;26342;42.826;23.992;2023-01-27T12:06:48;94443.97;;;1.72;100.00
40650;BME280;26342;42.826;23.992;2023-01-27T12:09:28;94449.47;;;1.70;100.00
40650;BME280;26342;42.826;23.992;2023-01-27T12:12:08;94447.06;;;1.68;100.00
40650;BME280;26342;42.826;23.992;2023-01-27T12:14:33;94446.50;;;1.66;100.00
40650;BME280;26342;42.826;23.992;2023-01-27T12:16:58;94448.50;;;1.64;100.00
40650;BME280;26342;42.826;23.992;2023-01-27T12:19:26;94450.72;;;1.67;100.00
40650;BME280;26342;42.826;23.992;2023-01-27T12:21:56;94451.38;;;1.63;100.00
40650;BME280;26342;42.826;23.992;2023-01-27T12:24:26;94456.41;;;1.64;100.00
40650;BME280;26342;42.826;23.992;2023-01-27T12:26:52;94450.22;;;1.59;100.00
40650;BME280;26342;42.826;23.992;2023-01-27T12:29:19;94443.34;;;1.58;100.00
40650;BME280;26342;42.826;23.992;2023-01-27T12:31:48;94445.09;;;1.64;100.00
40650;BME280;26342;42.826;23.992;2023-01-27T12:34:22;94447.06;;;1.68;100.00
40650;BME280;26342;42.826;23.992;2023-01-27T12:36:49;94448.50;;;1.64;100.00
40650;BME280;26342;42.826;23.992;2023-01-27T12:39:49;94454.00;;;1.63;100.00
40650;BME280;26342;42.826;23.992;2023-01-27T12:44:50;94447.16;;;1.62;100.00
40650;BME280;26342;42.826;23.992;2023-01-27T12:47:25;94448.59;;;1.58;100.00
40650;BME280;26342;42.826;23.992;2023-01-27T12:49:51;94453.53;;;1.54;100.00
40650;BME280;26342;42.826;23.992;2023-01-27T12:52:35;94449.75;;;1.50;100.00
40650;BME280;26342;42.826;23.992;2023-01-27T12:55:01;94451.78;;;1.48;100.00
40650;BME280;26342;42.826;23.992;2023-01-27T12:57:27;94446.28;;;1.50;100.00
40650;BME280;26342;42.826;23.992;2023-01-27T12:59:56;94445.84;;;1.53;100.00
40650;BME280;26342;42.826;23.992;2023-01-27T13:02:25;94460.91;;;1.46;100.00
40650;BME280;26342;42.826;23.992;2023-01-27T13:04:53;94459.31;;;1.45;100.00
40650;BME280;26342;42.826;23.992;2023-01-27T13:07:29;94452.81;;;1.47;100.00
40650;BME280;26342;42.826;23.992;2023-01-27T13:10:02;94458.50;;;1.44;100.00
40650;BME280;26342;42.826;23.992;2023-01-27T13:15:14;94459.94;;;1.58;100.00
40650;BME280;26342;42.826;23.992;2023-01-27T13:17:43;94468.50;;;1.54;100.00
40650;BME280;26342;42.826;23.992;2023-01-27T13:22:47;94468.00;;;1.45;100.00
40650;BME280;26342;42.826;23.992;2023-01-27T13:25:16;94477.25;;;1.48;100.00
40650;BME280;26342;42.826;23.992;2023-01-27T13:27:42;94480.34;;;1.45;100.00
40650;BME280;26342;42.826;23.992;2023-01-27T13:30:22;94478.53;;;1.45;100.00
40650;BME280;26342;42.826;23.992;2023-01-27T13:32:52;94480.78;;;1.42;100.00
40650;BME280;26342;42.826;23.992;2023-01-27T13:35:24;94479.53;;;1.44;100.00
40650;BME280;26342;42.826;23.992;2023-01-27T13:37:51;94485.47;;;1.39;100.00
40650;BME280;26342;42.826;23.992;2023-01-27T13:40:21;94486.56;;;1.32;100.00
40650;BME280;26342;42.826;23.992;2023-01-27T13:50:38;94500.28;;;1.16;100.00
40650;BME280;26342;42.826;23.992;2023-01-27T13:53:07;94496.22;;;1.20;100.00
40650;BME280;26342;42.826;23.992;2023-01-27T13:58:33;94501.38;;;1.08;100.00
40650;BME280;26342;42.826;23.992;2023-01-27T14:01:09;94514.25;;;0.98;100.00
40650;BME280;26342;42.826;23.992;2023-01-27T14:09:07;94509.50;;;0.88;100.00
40650;BME280;26342;42.826;23.992;2023-01-27T14:14:38;94520.91;;;0.75;100.00
40650;BME280;26342;42.826;23.992;2023-01-27T14:19:43;94513.63;;;0.77;100.00
40650;BME280;26342;42.826;23.992;2023-01-27T14:24:51;94521.16;;;0.92;100.00
40650;BME280;26342;42.826;23.992;2023-01-27T14:37:40;94520.56;;;0.90;100.00
40650;BME280;26342;42.826;23.992;2023-01-27T14:45:37;94541.66;;;1.02;100.00
40650;BME280;26342;42.826;23.992;2023-01-27T15:00:53;94546.50;;;1.05;100.00